Time;durP1;ratioP1;P1;durP2;ratioP2;P2;SDS_P1;SDS_P2;PMS_P1;PMS_P2;Temp;Humidity;BMP_temperature;BMP_pressure;BME280_temperature;BME280_humidity;BME280_pressure;Samples;Min_cycle;Max_cycle;Signal;HPM_P1;HPM_P2
2022/05/01 05:32:32;;;;;;;4.03;1.75;;;;;;;10.43;75.64;98526.53;5047841;28;20392;-61
2022/05/01 05:34:57;;;;;;;4.57;1.90;;;;;;;10.50;75.06;98532.81;5042724;28;20546;-61
2022/05/01 05:37:23;;;;;;;4.47;1.85;;;;;;;10.29;74.84;98493.22;5033296;28;20041;-60
2022/05/01 05:39:49;;;;;;;4.55;1.88;;;;;;;10.57;74.83;98533.84;5046048;28;20029;-60
2022/05/01 05:42:14;;;;;;;4.90;1.85;;;;;;;10.64;74.40;98541.91;5046242;28;20039;-60
2022/05/01 05:44:40;;;;;;;3.75;1.70;;;;;;;10.62;74.39;98537.78;5049560;28;20025;-60
2022/05/01 05:47:05;;;;;;;4.63;1.65;;;;;;;10.72;74.08;98538.56;5043949;28;20018;-60
2022/05/01 05:49:31;;;;;;;4.40;1.83;;;;;;;10.59;74.35;98531.13;5029160;28;20037;-60
2022/05/01 05:51:58;;;;;;;4.22;1.90;;;;;;;10.56;74.87;98537.41;5034689;28;20040;-60
2022/05/01 05:54:23;;;;;;;4.50;1.90;;;;;;;10.57;74.25;98533.84;5042258;28;20057;-60
2022/05/01 05:56:49;;;;;;;4.80;2.00;;;;;;;10.58;74.37;98529.47;5077390;28;20035;-60
2022/05/01 05:59:15;;;;;;;3.95;1.75;;;;;;;10.53;74.43;98534.28;5050034;28;20131;-60
2022/05/01 06:01:41;;;;;;;5.03;2.13;;;;;;;10.60;74.51;98537.94;5049845;28;20041;-60
2022/05/01 06:04:06;;;;;;;5.13;1.98;;;;;;;10.67;74.03;98540.78;5028080;28;20694;-60
2022/05/01 06:06:32;;;;;;;4.30;1.83;;;;;;;10.68;74.38;98537.22;5049210;28;20075;-60
2022/05/01 06:08:57;;;;;;;4.93;1.92;;;;;;;10.54;74.85;98535.94;5031882;28;20036;-60
2022/05/01 06:11:22;;;;;;;4.10;1.80;;;;;;;10.63;74.62;98539.44;5047188;28;21376;-59
2022/05/01 06:13:48;;;;;;;3.95;1.70;;;;;;;10.57;74.46;98536.44;5079373;28;20033;-60
2022/05/01 06:16:13;;;;;;;4.80;1.77;;;;;;;10.66;74.24;98545.16;5030504;28;20578;-59
2022/05/01 06:18:39;;;;;;;4.75;1.80;;;;;;;10.72;73.37;98541.16;5074971;28;20365;-60
2022/05/01 06:21:04;;;;;;;4.10;1.83;;;;;;;10.74;72.93;98537.44;5031268;28;20037;-60
2022/05/01 06:23:30;;;;;;;4.43;1.70;;;;;;;10.77;73.30;98546.75;5035673;28;20056;-59
2022/05/01 06:25:56;;;;;;;4.38;1.67;;;;;;;10.80;72.20;98543.00;5050488;28;20029;-59
2022/05/01 06:28:21;;;;;;;4.32;1.70;;;;;;;10.74;72.07;98541.81;5046635;28;20037;-59
2022/05/01 06:30:49;;;;;;;3.75;1.70;;;;;;;10.74;71.40;98536.63;5035797;28;20365;-59
2022/05/01 06:33:20;;;;;;;4.15;1.80;;;;;;;10.65;69.96;98498.50;5046731;28;20029;-59
2022/05/01 06:35:50;;;;;;;4.00;1.48;;;;;;;10.97;69.62;98537.00;5032807;28;20094;-58
2022/05/01 06:38:16;;;;;;;3.60;1.50;;;;;;;11.00;67.96;98536.69;5045766;28;20037;-61
2022/05/01 06:40:43;;;;;;;4.03;1.38;;;;;;;11.03;68.26;98541.59;5049575;28;20032;-61
2022/05/01 06:43:09;;;;;;;4.35;1.90;;;;;;;11.03;68.01;98539.00;5035585;28;20029;-61
2022/05/01 06:45:35;;;;;;;4.10;1.70;;;;;;;11.00;67.74;98538.47;5029805;28;20036;-61
2022/05/01 06:48:03;;;;;;;3.65;1.50;;;;;;;11.01;67.54;98540.94;5046781;28;20029;-61
2022/05/01 06:50:29;;;;;;;3.70;1.50;;;;;;;10.85;69.22;98546.00;5023291;28;20498;-62
2022/05/01 06:52:55;;;;;;;4.53;1.60;;;;;;;10.91;68.61;98548.81;5034065;28;20033;-61
2022/05/01 06:55:23;;;;;;;4.32;1.73;;;;;;;10.88;68.43;98543.91;5031976;28;20050;-62
2022/05/01 06:57:48;;;;;;;3.70;1.48;;;;;;;10.95;67.98;98549.31;5031878;28;20039;-61
2022/05/01 07:00:14;;;;;;;4.28;1.73;;;;;;;11.05;68.01;98537.06;5031295;28;20037;-63
2022/05/01 07:02:47;;;;;;;3.90;1.70;;;;;;;11.07;68.99;98552.53;5030983;28;20029;-61
2022/05/01 07:05:12;;;;;;;4.28;1.67;;;;;;;11.18;69.06;98536.69;5034725;28;20025;-60
2022/05/01 07:07:38;;;;;;;3.75;1.65;;;;;;;11.31;70.08;98544.91;5018459;28;20087;-62
2022/05/01 07:10:05;;;;;;;4.10;1.77;;;;;;;11.34;69.76;98536.81;5031401;28;20773;-62
2022/05/01 07:12:30;;;;;;;5.10;1.70;;;;;;;11.38;69.28;98541.72;5060022;28;20036;-62
2022/05/01 07:14:55;;;;;;;3.80;1.70;;;;;;;11.27;68.89;98551.41;5024485;28;20469;-62
2022/05/01 07:17:21;;;;;;;3.83;1.60;;;;;;;10.86;68.95;98472.19;5032082;28;20072;-62
2022/05/01 07:19:46;;;;;;;4.72;1.60;;;;;;;11.38;69.12;98541.72;5031720;28;20107;-62
2022/05/01 07:22:16;;;;;;;4.20;1.80;;;;;;;11.50;67.87;98543.13;5011829;28;20522;-62
2022/05/01 07:24:41;;;;;;;4.60;2.05;;;;;;;11.32;68.14;98504.91;5034838;28;20074;-59
2022/05/01 07:27:07;;;;;;;5.18;1.75;;;;;;;11.60;69.79;98536.00;5010589;28;20679;-61
2022/05/01 07:29:32;;;;;;;4.13;1.98;;;;;;;11.68;68.84;98545.66;5032304;28;20620;-61
2022/05/01 07:31:58;;;;;;;6.10;1.70;;;;;;;11.73;68.10;98543.41;5063284;28;20445;-62
2022/05/01 07:34:23;;;;;;;6.78;1.70;;;;;;;11.74;68.01;98540.66;5048318;28;20036;-62
2022/05/01 07:36:48;;;;;;;4.32;1.65;;;;;;;11.83;67.74;98535.50;5027449;28;20132;-61
2022/05/01 07:39:14;;;;;;;3.85;1.67;;;;;;;11.85;67.78;98538.78;5026619;28;20083;-61
2022/05/01 07:41:41;;;;;;;3.65;1.40;;;;;;;11.87;68.24;98539.44;5024868;28;20033;-62
2022/05/01 07:44:08;;;;;;;3.40;1.42;;;;;;;11.58;68.26;98477.25;5028884;28;20029;-61
2022/05/01 07:46:34;;;;;;;4.63;1.80;;;;;;;11.62;68.29;98473.38;5011896;28;20124;-62
2022/05/01 07:49:00;;;;;;;4.82;1.80;;;;;;;11.98;67.33;98535.78;5013745;28;20075;-61
2022/05/01 07:51:25;;;;;;;3.65;1.52;;;;;;;11.90;66.84;98531.31;5016053;28;20033;-61
2022/05/01 07:53:53;;;;;;;3.95;1.73;;;;;;;11.94;67.35;98532.66;5040949;28;20148;-62
2022/05/01 07:56:19;;;;;;;6.13;1.65;;;;;;;11.97;67.41;98526.31;5032343;28;20709;-60
2022/05/01 07:58:45;;;;;;;3.50;1.50;;;;;;;12.04;67.78;98516.91;5018695;28;20055;-61
2022/05/01 08:01:10;;;;;;;3.67;1.50;;;;;;;12.16;68.70;98525.28;5059043;28;20485;-61
2022/05/01 08:06:22;;;;;;;3.83;1.70;;;;;;;12.26;64.66;98521.53;5030845;28;20096;-61
2022/05/01 08:08:47;;;;;;;3.45;1.23;;;;;;;12.30;62.79;98511.63;5026241;28;20033;-60
2022/05/01 08:11:13;;;;;;;5.43;2.40;;;;;;;12.84;61.28;98513.88;5044335;28;20550;-61
2022/05/01 08:13:39;;;;;;;31.05;22.13;;;;;;;13.73;57.05;98516.63;5021638;28;21693;-61
2022/05/01 08:16:04;;;;;;;20.27;11.02;;;;;;;14.54;55.16;98512.03;5029815;28;20045;-62
2022/05/01 08:21:14;;;;;;;16.48;11.27;;;;;;;15.42;53.05;98510.75;5033231;28;20119;-61
2022/05/01 08:23:41;;;;;;;7.13;3.20;;;;;;;15.75;49.81;98510.44;5027790;28;20033;-62
2022/05/01 08:26:07;;;;;;;5.20;2.17;;;;;;;16.38;48.98;98508.25;5030829;28;20060;-61
2022/05/01 08:28:34;;;;;;;4.78;1.73;;;;;;;16.95;48.30;98500.56;5027842;28;20039;-62
2022/05/01 08:31:00;;;;;;;5.72;2.63;;;;;;;17.32;46.55;98465.28;5026711;28;20110;-62
2022/05/01 08:33:26;;;;;;;4.30;1.48;;;;;;;18.21;45.50;98503.22;5046521;28;20028;-59
2022/05/01 08:35:52;;;;;;;5.43;2.05;;;;;;;18.54;44.54;98503.34;5027485;28;20037;-61
2022/05/01 08:38:17;;;;;;;3.10;1.30;;;;;;;18.00;45.23;98502.34;5025197;28;20730;-61
2022/05/01 08:40:46;;;;;;;4.47;1.80;;;;;;;18.37;44.90;98484.47;5024739;28;20033;-61
2022/05/01 08:43:14;;;;;;;5.80;2.10;;;;;;;18.58;44.64;98499.31;5028136;28;20550;-61
2022/05/01 08:46:08;;;;;;;3.75;1.70;;;;;;;19.66;43.71;98501.00;5030124;28;20252;-62
2022/05/01 08:48:47;;;;;;;4.18;1.77;;;;;;;20.93;38.25;98501.28;5034588;28;20017;-61
2022/05/01 08:51:13;;;;;;;3.55;1.50;;;;;;;21.20;36.55;98501.06;5024270;28;20036;-58
2022/05/01 08:53:41;;;;;;;3.72;1.50;;;;;;;20.88;37.78;98493.19;5024419;28;20478;-59
2022/05/01 08:56:07;;;;;;;4.20;1.98;;;;;;;20.96;37.58;98489.47;5027695;28;20029;-58
2022/05/01 08:58:33;;;;;;;4.38;1.90;;;;;;;21.19;37.20;98496.84;5013688;28;20491;-62
2022/05/01 09:00:59;;;;;;;5.35;2.25;;;;;;;21.72;35.33;98490.25;5026539;28;20030;-61
2022/05/01 09:03:25;;;;;;;4.82;1.80;;;;;;;21.57;35.27;98492.44;5026490;28;20888;-60
2022/05/01 09:05:51;;;;;;;4.38;2.20;;;;;;;21.60;35.31;98476.13;5027946;28;20633;-60
2022/05/01 09:08:16;;;;;;;3.78;1.80;;;;;;;21.82;35.83;98479.16;5014557;28;20059;-60
2022/05/01 09:10:43;;;;;;;4.78;2.33;;;;;;;21.38;35.12;98452.72;5026728;28;20082;-60
2022/05/01 09:13:09;;;;;;;4.18;1.90;;;;;;;20.97;36.82;98485.00;5017358;28;20025;-59
2022/05/01 09:15:40;;;;;;;4.03;1.80;;;;;;;20.79;37.50;98478.63;5035961;28;20040;-61
2022/05/01 09:18:14;;;;;;;4.15;2.00;;;;;;;20.38;37.57;98481.69;5052867;28;20025;-57
2022/05/01 09:21:03;;;;;;;4.18;2.00;;;;;;;19.77;38.27;98486.41;5024935;28;20808;-60
2022/05/01 09:23:56;;;;;;;4.20;2.00;;;;;;;19.16;40.42;98490.06;5028212;28;20032;-59
2022/05/01 09:26:22;;;;;;;3.60;1.75;;;;;;;18.88;40.70;98479.75;5035713;28;20500;-60
2022/05/01 09:28:48;;;;;;;4.40;2.05;;;;;;;18.70;42.27;98485.56;5020364;28;20030;-59
2022/05/01 09:31:14;;;;;;;4.45;2.30;;;;;;;18.63;42.48;98482.91;5023321;28;20488;-57
2022/05/01 09:33:39;;;;;;;4.15;2.05;;;;;;;18.70;41.95;98478.47;5025266;28;20095;-61
2022/05/01 09:36:05;;;;;;;4.22;2.00;;;;;;;18.67;42.04;98468.31;5025824;28;20025;-63
2022/05/01 09:38:30;;;;;;;4.70;2.28;;;;;;;18.63;42.57;98478.44;5017124;28;20025;-61
2022/05/01 09:41:02;;;;;;;6.30;2.05;;;;;;;18.37;42.90;98439.72;5063432;28;20056;-61
2022/05/01 09:43:43;;;;;;;4.43;2.33;;;;;;;18.42;43.19;98470.72;5059564;28;20021;-62
2022/05/01 09:46:20;;;;;;;4.50;2.03;;;;;;;18.46;43.35;98479.03;5029925;28;20034;-60
2022/05/01 09:49:07;;;;;;;4.30;2.00;;;;;;;18.37;43.12;98471.31;4997213;28;20040;-62
2022/05/01 09:51:42;;;;;;;5.40;2.38;;;;;;;18.14;44.01;98471.63;5041702;28;20034;-60
2022/05/01 09:54:09;;;;;;;4.53;2.20;;;;;;;18.18;44.20;98467.63;5038686;28;20048;-62
2022/05/01 09:56:46;;;;;;;5.25;1.80;;;;;;;17.99;43.75;98458.63;5017688;28;20745;-60
2022/05/01 09:59:12;;;;;;;4.88;2.00;;;;;;;17.85;43.89;98459.56;5023910;28;20036;-59
2022/05/01 10:01:37;;;;;;;4.10;1.83;;;;;;;18.09;43.71;98458.28;5031739;28;20025;-61
2022/05/01 10:04:03;;;;;;;5.70;1.92;;;;;;;18.19;45.41;98468.41;5023899;28;20041;-61
2022/05/01 10:06:31;;;;;;;4.43;2.33;;;;;;;17.96;45.61;98471.34;5025848;28;20091;-61
2022/05/01 10:08:57;;;;;;;4.65;2.10;;;;;;;17.83;45.71;98464.19;5027885;28;20035;-61
2022/05/01 10:11:26;;;;;;;4.50;2.20;;;;;;;17.88;45.08;98458.38;5031148;28;20028;-61
2022/05/01 10:13:51;;;;;;;4.40;1.92;;;;;;;17.91;44.53;98455.38;5035197;28;20024;-60
2022/05/01 10:16:17;;;;;;;4.18;1.95;;;;;;;18.03;44.79;98461.66;5030137;28;20037;-61
2022/05/01 10:18:45;;;;;;;5.05;2.25;;;;;;;18.09;44.29;98463.53;5031576;28;20029;-61
2022/05/01 10:21:11;;;;;;;5.15;2.00;;;;;;;18.04;43.36;98458.03;5028318;28;20387;-62
2022/05/01 10:23:37;;;;;;;4.00;1.83;;;;;;;18.06;43.87;98456.03;5039376;28;20536;-62
2022/05/01 10:26:15;;;;;;;3.83;1.90;;;;;;;17.93;45.14;98446.25;5034142;28;20035;-60
2022/05/01 10:28:56;;;;;;;4.30;1.85;;;;;;;17.86;45.51;98454.09;5026098;28;20494;-61
2022/05/01 10:34:22;;;;;;;3.90;1.90;;;;;;;17.90;45.79;98444.00;5034179;28;20083;-61
2022/05/01 10:36:58;;;;;;;4.28;2.20;;;;;;;17.89;45.21;98449.47;5032462;28;20029;-61
2022/05/01 10:39:29;;;;;;;5.15;2.00;;;;;;;17.78;45.96;98443.75;5036533;28;20037;-61
2022/05/01 10:41:54;;;;;;;3.90;1.73;;;;;;;17.71;45.89;98442.09;5019107;28;20024;-60
2022/05/01 10:44:31;;;;;;;4.03;1.88;;;;;;;17.75;45.47;98436.22;5033663;28;20323;-61
2022/05/01 10:47:13;;;;;;;4.38;1.90;;;;;;;17.73;45.34;98435.63;5032453;28;20421;-61
2022/05/01 10:49:48;;;;;;;4.20;1.77;;;;;;;17.74;46.96;98439.88;5032626;28;20093;-61
2022/05/01 10:52:20;;;;;;;4.20;1.90;;;;;;;17.72;47.14;98435.81;5032219;28;20100;-60
2022/05/01 10:54:58;;;;;;;4.40;2.10;;;;;;;17.76;48.99;98440.50;5033892;28;20079;-61
2022/05/01 10:57:25;;;;;;;4.10;1.92;;;;;;;17.68;50.31;98438.00;5028809;28;20544;-61
2022/05/01 11:00:01;;;;;;;4.25;2.05;;;;;;;17.66;49.96;98419.00;5028632;28;20032;-61
2022/05/01 11:02:35;;;;;;;4.13;2.03;;;;;;;17.68;47.84;98420.41;5029608;28;20114;-61
2022/05/01 11:05:01;;;;;;;5.13;2.25;;;;;;;17.32;50.89;98399.59;5027072;28;20040;-61
2022/05/01 11:07:28;;;;;;;4.30;2.20;;;;;;;17.10;52.64;98391.81;5016915;28;20028;-60
2022/05/01 11:09:56;;;;;;;4.60;2.30;;;;;;;17.12;54.62;98425.75;5026387;28;20017;-60
2022/05/01 11:12:24;;;;;;;4.35;2.03;;;;;;;17.01;53.09;98407.88;5024720;28;20112;-60
2022/05/01 11:14:51;;;;;;;6.25;2.40;;;;;;;17.16;56.27;98407.78;5018889;28;20447;-60
2022/05/01 11:17:36;;;;;;;4.90;2.45;;;;;;;17.18;53.64;98414.47;5037314;28;20029;-60
2022/05/01 11:20:04;;;;;;;4.40;2.05;;;;;;;17.29;51.39;98415.75;5036583;28;20052;-61
2022/05/01 11:22:30;;;;;;;4.50;2.25;;;;;;;17.27;53.41;98394.94;5026994;28;20032;-60
2022/05/01 11:24:55;;;;;;;4.53;2.25;;;;;;;17.36;56.57;98410.53;5027469;28;20036;-60
2022/05/01 11:27:22;;;;;;;4.88;2.40;;;;;;;17.40;56.83;98403.91;5029797;28;20103;-62
2022/05/01 11:30:06;;;;;;;4.25;2.15;;;;;;;17.51;54.63;98397.28;5006822;28;20036;-63
2022/05/01 11:32:45;;;;;;;4.43;1.73;;;;;;;17.47;52.00;98387.16;5029001;28;20037;-62
2022/05/01 11:35:11;;;;;;;;;;;;;;;17.69;54.33;98392.31;5025217;28;20611;-61
2022/05/01 11:38:06;;;;;;;4.13;2.03;;;;;;;17.52;55.32;98364.72;5027488;28;19924;-60
2022/05/01 11:40:32;;;;;;;4.25;1.90;;;;;;;17.47;57.01;98384.53;5026238;28;20025;-61
2022/05/01 11:43:17;;;;;;;4.20;1.70;;;;;;;17.52;58.10;98380.50;5033573;28;20036;-61
2022/05/01 11:45:45;;;;;;;4.07;1.70;;;;;;;17.64;56.57;98371.06;5027041;28;20074;-61
2022/05/01 11:48:18;;;;;;;3.65;1.42;;;;;;;17.76;49.33;98369.50;5036652;28;20510;-61
2022/05/01 11:50:45;;;;;;;3.17;1.27;;;;;;;17.81;44.58;98368.88;5031105;28;20033;-61
2022/05/01 11:53:18;;;;;;;3.35;1.25;;;;;;;17.83;46.31;98364.25;5024499;28;20048;-61
2022/05/01 12:04:23;;;;;;;4.18;1.60;;;;;;;18.46;41.12;98355.31;5057359;28;20230;-60
2022/05/01 12:06:48;;;;;;;3.50;1.50;;;;;;;18.43;40.83;98345.97;5018248;28;20029;-61
2022/05/01 12:09:17;;;;;;;3.72;1.60;;;;;;;18.53;40.86;98343.75;5027481;28;20858;-61
2022/05/01 12:11:46;;;;;;;3.17;1.33;;;;;;;18.63;39.88;98341.50;5027593;28;20025;-61
2022/05/01 12:14:13;;;;;;;3.50;1.45;;;;;;;18.81;40.17;98342.75;5024967;28;20099;-60
2022/05/01 12:16:40;;;;;;;3.15;1.33;;;;;;;18.98;39.07;98338.69;4981464;28;20043;-62
2022/05/01 12:19:05;;;;;;;3.92;1.30;;;;;;;19.04;38.39;98334.44;5022120;28;20032;-61
2022/05/01 12:21:32;;;;;;;3.97;1.40;;;;;;;19.10;38.64;98322.25;5021531;28;20034;-60
2022/05/01 12:24:05;;;;;;;3.80;1.40;;;;;;;19.15;35.58;98320.63;5022446;28;20091;-60
2022/05/01 12:26:33;;;;;;;3.88;1.38;;;;;;;19.18;37.51;98316.75;5021575;28;20036;-60
2022/05/01 12:28:59;;;;;;;3.45;1.15;;;;;;;18.93;36.61;98277.91;5027881;28;20487;-60
2022/05/01 12:31:25;;;;;;;3.20;1.13;;;;;;;19.15;35.81;98304.00;5032259;28;20044;-60
2022/05/01 12:33:52;;;;;;;2.80;1.00;;;;;;;19.21;34.78;98311.06;5028528;28;20036;-60
2022/05/01 12:36:27;;;;;;;3.03;1.15;;;;;;;19.21;34.45;98301.31;5031850;28;20052;-61
2022/05/01 12:39:05;;;;;;;3.83;1.20;;;;;;;19.34;35.62;98311.00;5034678;28;20380;-61
2022/05/01 12:44:14;;;;;;;3.30;1.20;;;;;;;19.43;34.16;98292.34;5027596;28;20138;-60
2022/05/01 12:46:51;;;;;;;4.07;1.30;;;;;;;19.58;35.89;98296.31;5027450;28;20128;-61
2022/05/01 12:49:24;;;;;;;3.90;1.45;;;;;;;19.78;37.28;98298.06;5029818;28;20021;-61
2022/05/01 12:51:50;;;;;;;3.63;1.42;;;;;;;19.88;37.15;98293.16;5024605;28;20348;-61
2022/05/01 12:54:18;;;;;;;3.28;1.48;;;;;;;19.92;36.52;98296.97;5062420;28;20029;-59
2022/05/01 12:56:45;;;;;;;3.63;1.27;;;;;;;19.92;36.81;98291.69;5037287;28;20468;-60
2022/05/01 12:59:30;;;;;;;2.85;1.13;;;;;;;20.03;37.11;98292.03;5071812;28;20457;-62
2022/05/01 13:01:57;;;;;;;3.33;1.45;;;;;;;19.98;36.43;98290.03;5033892;28;20057;-61
2022/05/01 13:04:32;;;;;;;3.92;1.50;;;;;;;19.94;36.21;98287.00;5021266;28;20032;-61
2022/05/01 13:06:57;;;;;;;3.78;1.30;;;;;;;19.90;35.89;98238.34;5032859;28;20103;-60
2022/05/01 13:09:23;;;;;;;3.47;1.35;;;;;;;20.31;37.48;98284.50;5027982;28;20034;-61
2022/05/01 13:12:06;;;;;;;3.78;1.70;;;;;;;20.21;37.89;98241.16;5069025;28;20031;-60
2022/05/01 13:14:36;;;;;;;3.47;1.40;;;;;;;20.27;37.17;98267.50;5022195;28;20026;-61
2022/05/01 13:17:13;;;;;;;3.50;1.35;;;;;;;20.30;36.94;98267.06;5049118;28;20066;-60
2022/05/01 13:19:40;;;;;;;5.40;1.48;;;;;;;20.03;37.13;98226.06;5033336;28;20018;-59
2022/05/01 13:22:07;;;;;;;3.47;1.50;;;;;;;20.14;36.98;98251.75;5014230;28;20039;-60
2022/05/01 13:24:34;;;;;;;4.15;1.40;;;;;;;19.99;35.99;98265.28;5038054;28;20055;-60
2022/05/01 13:27:02;;;;;;;3.70;1.42;;;;;;;19.93;37.04;98247.66;5026070;28;20024;-59
2022/05/01 13:29:31;;;;;;;3.45;1.42;;;;;;;20.03;36.80;98255.91;5024936;28;20029;-60
2022/05/01 13:31:59;;;;;;;3.50;1.40;;;;;;;20.08;36.63;98245.53;5032149;28;20048;-59
2022/05/01 13:34:24;;;;;;;3.78;1.40;;;;;;;19.81;36.48;98200.06;5029738;28;20570;-60
2022/05/01 13:36:50;;;;;;;3.97;1.80;;;;;;;20.11;37.01;98231.06;5029161;28;20037;-59
2022/05/01 13:39:15;;;;;;;3.40;1.50;;;;;;;20.32;36.85;98237.81;5037122;28;20035;-59
2022/05/01 13:44:58;;;;;;;3.75;1.45;;;;;;;20.00;35.89;98165.81;5025925;28;20057;-59
2022/05/01 13:47:17;;;;;;;3.60;1.40;;;;;;;20.63;35.52;98230.84;5044818;28;20040;-60
2022/05/01 13:49:42;;;;;;;3.42;1.50;;;;;;;20.47;34.98;98217.16;5029078;28;20032;-59
2022/05/01 13:52:08;;;;;;;3.80;1.40;;;;;;;20.46;35.06;98220.84;5032737;28;20039;-59
2022/05/01 13:54:36;;;;;;;3.63;1.30;;;;;;;20.39;36.97;98228.00;5043226;28;20041;-59
2022/05/01 13:57:02;;;;;;;3.47;1.50;;;;;;;20.53;34.67;98221.56;5044487;28;20039;-59
2022/05/01 13:59:28;;;;;;;3.75;1.40;;;;;;;20.21;33.08;98181.25;5039434;28;20818;-59
2022/05/01 14:01:56;;;;;;;3.90;1.52;;;;;;;20.33;35.64;98210.38;5040235;28;20017;-60
2022/05/01 14:04:25;;;;;;;4.30;1.63;;;;;;;20.49;36.50;98204.53;5044128;28;20761;-60
2022/05/01 14:06:51;;;;;;;2.90;1.17;;;;;;;20.52;35.89;98190.91;5031814;28;20108;-61
2022/05/01 14:09:19;;;;;;;3.40;1.35;;;;;;;20.51;36.31;98191.91;5034302;28;20036;-59
2022/05/01 14:11:50;;;;;;;3.70;1.45;;;;;;;20.67;35.68;98190.56;5040120;28;20209;-59
2022/05/01 14:14:16;;;;;;;3.88;1.48;;;;;;;20.61;35.66;98185.34;5035631;28;20053;-59
2022/05/01 14:16:43;;;;;;;3.83;1.50;;;;;;;20.49;35.61;98179.97;5023415;28;20112;-60
2022/05/01 14:19:24;;;;;;;3.67;1.45;;;;;;;20.47;36.34;98182.81;5028781;28;20471;-56
2022/05/01 14:21:50;;;;;;;5.03;1.70;;;;;;;20.23;35.36;98133.53;5010050;28;20017;-58
2022/05/01 14:24:16;;;;;;;3.42;1.50;;;;;;;20.54;35.46;98178.28;5025102;28;20091;-59
2022/05/01 14:26:42;;;;;;;3.35;1.33;;;;;;;20.50;35.84;98144.63;5025277;28;20517;-61
2022/05/01 14:29:07;;;;;;;3.78;1.60;;;;;;;20.84;35.81;98177.56;5024835;28;20446;-60
2022/05/01 14:31:55;;;;;;;3.65;1.38;;;;;;;20.63;35.25;98141.06;4989719;28;20087;-59
2022/05/01 14:34:24;;;;;;;3.60;1.48;;;;;;;20.84;34.73;98167.00;5037798;28;20033;-59
2022/05/01 14:36:58;;;;;;;3.90;1.58;;;;;;;20.82;35.27;98165.59;5034856;28;20036;-59
2022/05/01 14:39:25;;;;;;;3.15;1.23;;;;;;;20.86;35.81;98166.78;5037425;28;20068;-59
2022/05/01 14:41:55;;;;;;;3.47;1.40;;;;;;;20.82;35.39;98155.84;5042080;28;20020;-60
2022/05/01 14:44:33;;;;;;;3.97;1.67;;;;;;;20.81;36.76;98153.41;5044006;28;20876;-59
2022/05/01 14:47:01;;;;;;;3.17;1.35;;;;;;;20.80;36.21;98155.25;5044190;28;20028;-60
2022/05/01 14:49:57;;;;;;;3.88;1.40;;;;;;;20.78;35.41;98154.69;5029308;28;20230;-61
2022/05/01 14:52:24;;;;;;;4.10;1.60;;;;;;;20.85;36.00;98159.91;5042023;28;20083;-61
2022/05/01 14:54:50;;;;;;;4.75;1.52;;;;;;;20.80;36.31;98149.97;5038914;28;20036;-61
2022/05/01 14:57:20;;;;;;;4.25;1.55;;;;;;;20.91;35.20;98159.78;5037091;28;20037;-60
2022/05/01 15:08:22;;;;;;;3.50;1.50;;;;;;;20.89;35.86;98153.94;5036973;28;20044;-61
2022/05/01 15:10:47;;;;;;;3.08;1.17;;;;;;;20.58;35.45;98106.53;5040104;28;20021;-61
2022/05/01 15:13:14;;;;;;;3.63;1.63;;;;;;;20.88;35.78;98148.84;5022754;28;20398;-63
2022/05/01 15:15:57;;;;;;;3.90;1.50;;;;;;;20.71;35.59;98154.75;5043264;28;20028;-61
2022/05/01 15:18:25;;;;;;;3.70;1.42;;;;;;;20.49;36.53;98150.91;5075974;28;20033;-61
2022/05/01 15:21:20;;;;;;;4.00;1.60;;;;;;;20.34;36.48;98148.63;5021346;28;20021;-57
2022/05/01 15:23:57;;;;;;;3.67;1.42;;;;;;;20.12;36.33;98116.59;5038827;28;20025;-60
2022/05/01 15:26:24;;;;;;;3.08;1.30;;;;;;;20.21;35.99;98110.00;5040343;28;20428;-59
2022/05/01 15:28:52;;;;;;;3.97;1.40;;;;;;;20.44;36.31;98141.00;5041370;28;20419;-58
2022/05/01 15:31:20;;;;;;;3.90;1.48;;;;;;;20.31;37.18;98143.78;5043723;28;20029;-61
2022/05/01 15:33:46;;;;;;;4.60;1.70;;;;;;;20.28;36.70;98141.56;5020839;28;20037;-60
2022/05/01 15:36:31;;;;;;;3.70;1.60;;;;;;;20.29;36.92;98153.75;5024980;28;20030;-58
2022/05/01 15:39:07;;;;;;;4.65;1.40;;;;;;;20.22;36.62;98150.38;5022357;28;20051;-59
2022/05/01 15:41:33;;;;;;;3.40;1.40;;;;;;;20.15;37.45;98147.78;5032520;28;22558;-58
2022/05/01 15:44:06;;;;;;;3.92;1.75;;;;;;;19.80;37.45;98119.28;5043624;28;20151;-58
2022/05/01 15:46:33;;;;;;;4.05;1.55;;;;;;;20.11;37.19;98147.41;5030202;28;20391;-58
2022/05/01 15:54:35;;;;;;;8.07;1.60;;;;;;;20.50;36.48;98148.06;5043915;28;20083;-60
2022/05/01 15:57:02;;;;;;;4.95;1.80;;;;;;;20.54;35.86;98159.00;5042794;28;20075;-59
2022/05/01 15:59:28;;;;;;;3.50;1.40;;;;;;;20.62;35.73;98155.28;5041866;28;20108;-62
2022/05/01 16:01:55;;;;;;;3.25;1.27;;;;;;;20.69;35.26;98137.50;5045312;28;20045;-59
2022/05/01 16:04:22;;;;;;;4.40;1.55;;;;;;;20.32;35.52;98092.63;5040851;28;20021;-58
2022/05/01 16:06:52;;;;;;;5.05;1.35;;;;;;;20.67;35.00;98144.84;5043324;28;20017;-59
2022/05/01 16:09:22;;;;;;;;;;;;;;;20.71;35.58;98156.59;5032791;28;20028;-58
2022/05/01 16:12:16;;;;;;;3.35;1.30;;;;;;;20.69;35.63;98153.38;5067272;28;20020;-63
2022/05/01 16:15:11;;;;;;;3.60;1.40;;;;;;;20.66;36.20;98148.50;5040383;28;20024;-58
2022/05/01 16:17:42;;;;;;;3.35;1.40;;;;;;;20.74;36.70;98140.31;5033303;28;20028;-59
2022/05/01 16:20:13;;;;;;;3.30;1.40;;;;;;;20.68;36.21;98144.66;5042823;28;20087;-58
2022/05/01 16:22:38;;;;;;;4.10;1.40;;;;;;;20.71;35.33;98149.47;5031147;28;20037;-59
2022/05/01 16:25:07;;;;;;;3.22;1.48;;;;;;;20.45;36.52;98147.09;5038310;28;20021;-59
2022/05/01 16:27:38;;;;;;;3.47;1.47;;;;;;;20.27;36.32;98139.97;5020517;28;20036;-61
2022/05/01 16:30:07;;;;;;;4.43;1.40;;;;;;;20.23;36.14;98138.81;5035581;28;20020;-59
2022/05/01 16:32:38;;;;;;;5.15;1.48;;;;;;;20.13;36.70;98145.41;5028782;28;20035;-59
2022/05/01 16:35:05;;;;;;;4.07;1.63;;;;;;;19.97;36.66;98144.13;5051631;28;20028;-58
2022/05/01 16:37:53;;;;;;;3.55;1.45;;;;;;;20.09;36.68;98146.84;5038495;28;20032;-58
2022/05/01 16:40:21;;;;;;;4.43;1.67;;;;;;;19.76;37.77;98145.28;5038138;28;20040;-60
2022/05/01 16:42:51;;;;;;;3.70;1.50;;;;;;;19.81;37.72;98151.78;5041839;28;20017;-56
2022/05/01 16:45:23;;;;;;;3.47;1.42;;;;;;;19.66;38.58;98150.22;5021436;28;20041;-59
2022/05/01 16:47:50;;;;;;;3.97;1.75;;;;;;;19.57;38.14;98149.69;5043226;28;20606;-57
2022/05/01 16:50:16;;;;;;;4.05;1.40;;;;;;;19.59;38.23;98155.53;5041801;28;20475;-60
2022/05/01 16:52:44;;;;;;;3.80;1.60;;;;;;;19.53;37.91;98159.03;5047461;28;20499;-59
2022/05/01 16:55:12;;;;;;;3.42;1.45;;;;;;;19.18;38.54;98116.47;5041377;28;20029;-57
2022/05/01 16:57:40;;;;;;;4.45;1.60;;;;;;;19.46;38.42;98160.09;5039805;28;20033;-59
